sensor_id;sensor_type;location;lat;lon;timestamp;P1;durP1;ratioP1;P2;durP2;ratioP2
29916;SDS011;16786;49.466;11.068;2023-10-08T00:02:05;10.65;;;5.60;;
29916;SDS011;16786;49.466;11.068;2023-10-08T00:04:34;8.63;;;5.68;;
29916;SDS011;16786;49.466;11.068;2023-10-08T00:07:10;11.05;;;5.82;;
29916;SDS011;16786;49.466;11.068;2023-10-08T00:09:54;9.07;;;6.07;;
29916;SDS011;16786;49.466;11.068;2023-10-08T00:12:29;16.55;;;6.68;;
29916;SDS011;16786;49.466;11.068;2023-10-08T00:14:59;10.23;;;6.20;;
29916;SDS011;16786;49.466;11.068;2023-10-08T00:17:29;8.88;;;5.50;;
29916;SDS011;16786;49.466;11.068;2023-10-08T00:20:00;13.70;;;6.50;;
29916;SDS011;16786;49.466;11.068;2023-10-08T00:22:36;10.63;;;6.10;;
29916;SDS011;16786;49.466;11.068;2023-10-08T00:25:08;11.23;;;6.28;;
29916;SDS011;16786;49.466;11.068;2023-10-08T00:27:40;9.63;;;5.90;;
29916;SDS011;16786;49.466;11.068;2023-10-08T00:30:09;9.18;;;6.05;;
29916;SDS011;16786;49.466;11.068;2023-10-08T00:32:49;9.82;;;5.85;;
29916;SDS011;16786;49.466;11.068;2023-10-08T00:35:24;10.82;;;5.90;;
29916;SDS011;16786;49.466;11.068;2023-10-08T00:37:54;9.77;;;5.80;;
29916;SDS011;16786;49.466;11.068;2023-10-08T00:40:38;8.85;;;5.68;;
29916;SDS011;16786;49.466;11.068;2023-10-08T00:43:33;8.95;;;6.00;;
29916;SDS011;16786;49.466;11.068;2023-10-08T00:46:03;9.10;;;5.63;;
29916;SDS011;16786;49.466;11.068;2023-10-08T00:48:58;9.32;;;5.95;;
29916;SDS011;16786;49.466;11.068;2023-10-08T00:51:46;10.93;;;5.97;;
29916;SDS011;16786;49.466;11.068;2023-10-08T00:54:16;10.52;;;5.63;;
29916;SDS011;16786;49.466;11.068;2023-10-08T00:56:48;9.80;;;6.28;;
29916;SDS011;16786;49.466;11.068;2023-10-08T00:59:25;8.60;;;5.82;;
29916;SDS011;16786;49.466;11.068;2023-10-08T01:02:05;9.73;;;5.88;;
29916;SDS011;16786;49.466;11.068;2023-10-08T01:04:37;8.60;;;5.75;;
29916;SDS011;16786;49.466;11.068;2023-10-08T01:07:07;8.23;;;6.20;;
29916;SDS011;16786;49.466;11.068;2023-10-08T01:09:45;10.38;;;5.70;;
29916;SDS011;16786;49.466;11.068;2023-10-08T01:12:29;10.48;;;5.80;;
29916;SDS011;16786;49.466;11.068;2023-10-08T01:15:02;11.85;;;6.20;;
29916;SDS011;16786;49.466;11.068;2023-10-08T01:17:56;9.40;;;5.93;;
29916;SDS011;16786;49.466;11.068;2023-10-08T01:20:26;10.18;;;5.60;;
29916;SDS011;16786;49.466;11.068;2023-10-08T01:23:12;9.52;;;5.97;;
29916;SDS011;16786;49.466;11.068;2023-10-08T01:25:41;8.57;;;5.82;;
29916;SDS011;16786;49.466;11.068;2023-10-08T01:28:09;8.15;;;5.75;;
29916;SDS011;16786;49.466;11.068;2023-10-08T01:30:49;10.38;;;6.07;;
29916;SDS011;16786;49.466;11.068;2023-10-08T01:33:20;9.30;;;5.63;;
29916;SDS011;16786;49.466;11.068;2023-10-08T01:35:48;9.63;;;6.20;;
29916;SDS011;16786;49.466;11.068;2023-10-08T01:38:16;12.27;;;5.70;;
29916;SDS011;16786;49.466;11.068;2023-10-08T01:40:50;8.48;;;5.53;;
29916;SDS011;16786;49.466;11.068;2023-10-08T01:43:18;10.85;;;5.88;;
29916;SDS011;16786;49.466;11.068;2023-10-08T01:45:47;11.57;;;5.75;;
29916;SDS011;16786;49.466;11.068;2023-10-08T01:48:18;10.90;;;5.85;;
29916;SDS011;16786;49.466;11.068;2023-10-08T01:50:47;8.88;;;6.03;;
29916;SDS011;16786;49.466;11.068;2023-10-08T01:53:14;10.82;;;5.68;;
29916;SDS011;16786;49.466;11.068;2023-10-08T01:55:43;9.52;;;5.35;;
29916;SDS011;16786;49.466;11.068;2023-10-08T01:58:18;8.65;;;5.68;;
29916;SDS011;16786;49.466;11.068;2023-10-08T02:00:49;9.75;;;5.80;;
29916;SDS011;16786;49.466;11.068;2023-10-08T02:03:18;8.43;;;5.45;;
29916;SDS011;16786;49.466;11.068;2023-10-08T02:05:46;11.68;;;6.00;;
29916;SDS011;16786;49.466;11.068;2023-10-08T02:08:14;10.65;;;5.30;;
29916;SDS011;16786;49.466;11.068;2023-10-08T02:10:44;12.18;;;5.25;;
29916;SDS011;16786;49.466;11.068;2023-10-08T02:13:14;10.23;;;5.45;;
29916;SDS011;16786;49.466;11.068;2023-10-08T02:15:44;8.35;;;5.88;;
29916;SDS011;16786;49.466;11.068;2023-10-08T02:18:16;9.32;;;5.22;;
29916;SDS011;16786;49.466;11.068;2023-10-08T02:20:44;9.20;;;5.78;;
29916;SDS011;16786;49.466;11.068;2023-10-08T02:23:12;7.82;;;5.20;;
29916;SDS011;16786;49.466;11.068;2023-10-08T02:25:39;8.90;;;5.32;;
29916;SDS011;16786;49.466;11.068;2023-10-08T02:28:07;12.07;;;5.70;;
29916;SDS011;16786;49.466;11.068;2023-10-08T02:30:42;9.35;;;5.55;;
29916;SDS011;16786;49.466;11.068;2023-10-08T02:33:10;8.43;;;5.65;;
29916;SDS011;16786;49.466;11.068;2023-10-08T02:35:45;9.52;;;5.90;;
29916;SDS011;16786;49.466;11.068;2023-10-08T02:38:14;12.57;;;5.57;;
29916;SDS011;16786;49.466;11.068;2023-10-08T02:40:45;11.93;;;5.78;;
29916;SDS011;16786;49.466;11.068;2023-10-08T02:43:16;8.73;;;5.82;;
29916;SDS011;16786;49.466;11.068;2023-10-08T02:45:44;9.82;;;5.70;;
29916;SDS011;16786;49.466;11.068;2023-10-08T02:48:17;11.60;;;5.38;;
29916;SDS011;16786;49.466;11.068;2023-10-08T02:50:47;7.18;;;5.25;;
29916;SDS011;16786;49.466;11.068;2023-10-08T02:53:15;11.77;;;5.80;;
29916;SDS011;16786;49.466;11.068;2023-10-08T02:55:47;15.68;;;5.82;;
29916;SDS011;16786;49.466;11.068;2023-10-08T02:58:16;12.30;;;5.82;;
29916;SDS011;16786;49.466;11.068;2023-10-08T03:00:47;12.15;;;5.43;;
29916;SDS011;16786;49.466;11.068;2023-10-08T03:03:16;8.88;;;5.38;;
29916;SDS011;16786;49.466;11.068;2023-10-08T03:05:49;10.68;;;5.95;;
29916;SDS011;16786;49.466;11.068;2023-10-08T03:08:19;8.65;;;5.63;;
29916;SDS011;16786;49.466;11.068;2023-10-08T03:10:49;10.95;;;5.90;;
29916;SDS011;16786;49.466;11.068;2023-10-08T03:13:22;12.68;;;6.20;;
29916;SDS011;16786;49.466;11.068;2023-10-08T03:15:50;12.93;;;5.90;;
29916;SDS011;16786;49.466;11.068;2023-10-08T03:18:30;8.55;;;5.30;;
29916;SDS011;16786;49.466;11.068;2023-10-08T03:21:05;9.77;;;5.63;;
29916;SDS011;16786;49.466;11.068;2023-10-08T03:23:50;9.50;;;5.82;;
29916;SDS011;16786;49.466;11.068;2023-10-08T03:26:19;10.20;;;5.75;;
29916;SDS011;16786;49.466;11.068;2023-10-08T03:29:00;14.48;;;5.95;;
29916;SDS011;16786;49.466;11.068;2023-10-08T03:31:32;8.52;;;5.68;;
29916;SDS011;16786;49.466;11.068;2023-10-08T03:34:29;11.40;;;5.72;;
29916;SDS011;16786;49.466;11.068;2023-10-08T03:37:01;12.35;;;5.53;;
29916;SDS011;16786;49.466;11.068;2023-10-08T03:39:34;8.90;;;5.20;;
29916;SDS011;16786;49.466;11.068;2023-10-08T03:44:50;11.55;;;5.50;;
29916;SDS011;16786;49.466;11.068;2023-10-08T03:47:19;12.85;;;5.53;;
29916;SDS011;16786;49.466;11.068;2023-10-08T03:49:49;9.45;;;5.60;;
29916;SDS011;16786;49.466;11.068;2023-10-08T03:52:18;8.98;;;5.00;;
29916;SDS011;16786;49.466;11.068;2023-10-08T03:57:31;10.27;;;5.75;;
29916;SDS011;16786;49.466;11.068;2023-10-08T04:00:09;10.30;;;5.45;;
29916;SDS011;16786;49.466;11.068;2023-10-08T04:02:55;10.63;;;5.53;;
29916;SDS011;16786;49.466;11.068;2023-10-08T04:05:27;11.40;;;5.57;;
29916;SDS011;16786;49.466;11.068;2023-10-08T04:07:59;9.18;;;5.55;;
29916;SDS011;16786;49.466;11.068;2023-10-08T04:10:27;10.05;;;5.20;;
29916;SDS011;16786;49.466;11.068;2023-10-08T04:13:05;9.38;;;4.95;;
29916;SDS011;16786;49.466;11.068;2023-10-08T04:15:36;9.27;;;5.07;;
29916;SDS011;16786;49.466;11.068;2023-10-08T04:20:35;10.57;;;6.07;;
29916;SDS011;16786;49.466;11.068;2023-10-08T04:23:07;16.45;;;6.03;;
29916;SDS011;16786;49.466;11.068;2023-10-08T04:25:48;9.50;;;5.25;;
29916;SDS011;16786;49.466;11.068;2023-10-08T04:28:22;8.40;;;4.97;;
29916;SDS011;16786;49.466;11.068;2023-10-08T04:30:53;11.40;;;5.60;;
29916;SDS011;16786;49.466;11.068;2023-10-08T04:33:27;9.77;;;5.35;;
29916;SDS011;16786;49.466;11.068;2023-10-08T04:36:01;8.25;;;5.60;;
29916;SDS011;16786;49.466;11.068;2023-10-08T04:38:28;10.13;;;5.35;;
29916;SDS011;16786;49.466;11.068;2023-10-08T04:40:57;9.95;;;5.82;;
29916;SDS011;16786;49.466;11.068;2023-10-08T04:43:29;12.70;;;5.63;;
29916;SDS011;16786;49.466;11.068;2023-10-08T04:45:58;10.55;;;5.50;;
29916;SDS011;16786;49.466;11.068;2023-10-08T04:48:26;9.27;;;5.53;;
29916;SDS011;16786;49.466;11.068;2023-10-08T04:50:59;9.68;;;5.22;;
29916;SDS011;16786;49.466;11.068;2023-10-08T04:53:29;7.90;;;5.25;;
29916;SDS011;16786;49.466;11.068;2023-10-08T04:56:04;12.00;;;5.20;;
29916;SDS011;16786;49.466;11.068;2023-10-08T04:58:33;10.55;;;5.53;;
29916;SDS011;16786;49.466;11.068;2023-10-08T05:01:07;9.18;;;5.18;;
29916;SDS011;16786;49.466;11.068;2023-10-08T05:06:29;10.02;;;5.93;;
29916;SDS011;16786;49.466;11.068;2023-10-08T05:11:39;10.35;;;5.93;;
29916;SDS011;16786;49.466;11.068;2023-10-08T05:14:19;13.45;;;5.38;;
29916;SDS011;16786;49.466;11.068;2023-10-08T05:17:07;9.57;;;5.93;;
29916;SDS011;16786;49.466;11.068;2023-10-08T05:19:49;10.07;;;5.45;;
29916;SDS011;16786;49.466;11.068;2023-10-08T05:22:35;14.15;;;5.78;;
29916;SDS011;16786;49.466;11.068;2023-10-08T05:25:05;10.48;;;5.00;;
29916;SDS011;16786;49.466;11.068;2023-10-08T05:27:39;10.25;;;4.90;;
29916;SDS011;16786;49.466;11.068;2023-10-08T05:30:34;10.85;;;5.70;;
29916;SDS011;16786;49.466;11.068;2023-10-08T05:33:05;8.70;;;5.50;;
29916;SDS011;16786;49.466;11.068;2023-10-08T05:35:40;10.35;;;5.47;;
29916;SDS011;16786;49.466;11.068;2023-10-08T05:38:09;13.82;;;5.13;;
29916;SDS011;16786;49.466;11.068;2023-10-08T05:48:54;9.77;;;5.45;;
29916;SDS011;16786;49.466;11.068;2023-10-08T05:51:36;9.30;;;5.22;;
29916;SDS011;16786;49.466;11.068;2023-10-08T05:54:19;9.43;;;4.97;;
29916;SDS011;16786;49.466;11.068;2023-10-08T05:59:39;12.70;;;4.95;;
29916;SDS011;16786;49.466;11.068;2023-10-08T06:02:40;12.93;;;5.45;;
29916;SDS011;16786;49.466;11.068;2023-10-08T06:05:11;12.57;;;6.15;;
29916;SDS011;16786;49.466;11.068;2023-10-08T06:07:45;10.38;;;5.32;;
29916;SDS011;16786;49.466;11.068;2023-10-08T06:10:25;9.18;;;5.03;;
29916;SDS011;16786;49.466;11.068;2023-10-08T06:15:40;12.65;;;5.47;;
29916;SDS011;16786;49.466;11.068;2023-10-08T06:18:25;11.60;;;5.78;;
29916;SDS011;16786;49.466;11.068;2023-10-08T06:21:04;9.88;;;5.28;;
29916;SDS011;16786;49.466;11.068;2023-10-08T06:23:37;10.32;;;5.55;;
29916;SDS011;16786;49.466;11.068;2023-10-08T06:26:05;10.30;;;5.80;;
29916;SDS011;16786;49.466;11.068;2023-10-08T06:28:42;9.70;;;5.03;;
29916;SDS011;16786;49.466;11.068;2023-10-08T06:31:11;14.43;;;5.53;;
29916;SDS011;16786;49.466;11.068;2023-10-08T06:33:39;13.52;;;5.68;;
29916;SDS011;16786;49.466;11.068;2023-10-08T06:36:08;9.52;;;5.03;;
29916;SDS011;16786;49.466;11.068;2023-10-08T06:38:41;10.32;;;5.32;;
29916;SDS011;16786;49.466;11.068;2023-10-08T06:41:16;12.27;;;5.57;;
29916;SDS011;16786;49.466;11.068;2023-10-08T06:44:06;10.90;;;5.55;;
29916;SDS011;16786;49.466;11.068;2023-10-08T06:46:41;11.07;;;5.43;;
29916;SDS011;16786;49.466;11.068;2023-10-08T06:49:09;11.15;;;5.43;;
29916;SDS011;16786;49.466;11.068;2023-10-08T06:51:41;11.30;;;5.40;;
29916;SDS011;16786;49.466;11.068;2023-10-08T06:54:11;8.88;;;5.03;;
29916;SDS011;16786;49.466;11.068;2023-10-08T06:56:44;12.70;;;5.20;;
29916;SDS011;16786;49.466;11.068;2023-10-08T06:59:19;11.98;;;5.95;;
29916;SDS011;16786;49.466;11.068;2023-10-08T07:01:51;10.45;;;5.93;;
29916;SDS011;16786;49.466;11.068;2023-10-08T07:04:19;10.63;;;5.60;;
29916;SDS011;16786;49.466;11.068;2023-10-08T07:06:49;10.23;;;5.65;;
29916;SDS011;16786;49.466;11.068;2023-10-08T07:09:18;11.98;;;5.72;;
29916;SDS011;16786;49.466;11.068;2023-10-08T07:11:55;15.07;;;5.78;;
29916;SDS011;16786;49.466;11.068;2023-10-08T07:14:27;12.95;;;5.95;;
29916;SDS011;16786;49.466;11.068;2023-10-08T07:16:56;8.73;;;4.90;;
29916;SDS011;16786;49.466;11.068;2023-10-08T07:19:31;10.20;;;5.45;;
29916;SDS011;16786;49.466;11.068;2023-10-08T07:22:05;8.30;;;5.00;;
29916;SDS011;16786;49.466;11.068;2023-10-08T07:24:46;8.65;;;5.35;;
29916;SDS011;16786;49.466;11.068;2023-10-08T07:27:20;11.23;;;6.35;;
29916;SDS011;16786;49.466;11.068;2023-10-08T07:29:57;9.95;;;5.28;;
29916;SDS011;16786;49.466;11.068;2023-10-08T07:32:30;12.98;;;5.00;;
29916;SDS011;16786;49.466;11.068;2023-10-08T07:34:58;10.05;;;5.82;;
29916;SDS011;16786;49.466;11.068;2023-10-08T07:37:42;14.30;;;5.53;;
29916;SDS011;16786;49.466;11.068;2023-10-08T07:40:10;11.75;;;5.18;;
29916;SDS011;16786;49.466;11.068;2023-10-08T07:42:39;10.25;;;5.32;;
29916;SDS011;16786;49.466;11.068;2023-10-08T07:45:07;11.60;;;5.18;;
29916;SDS011;16786;49.466;11.068;2023-10-08T07:47:35;11.50;;;5.57;;
29916;SDS011;16786;49.466;11.068;2023-10-08T07:50:02;8.50;;;5.18;;
29916;SDS011;16786;49.466;11.068;2023-10-08T07:52:38;13.68;;;6.40;;
29916;SDS011;16786;49.466;11.068;2023-10-08T07:55:11;9.38;;;5.65;;
29916;SDS011;16786;49.466;11.068;2023-10-08T07:57:45;11.80;;;5.60;;
29916;SDS011;16786;49.466;11.068;2023-10-08T08:00:12;11.52;;;6.10;;
29916;SDS011;16786;49.466;11.068;2023-10-08T08:02:52;10.27;;;5.45;;
29916;SDS011;16786;49.466;11.068;2023-10-08T08:05:22;10.10;;;5.70;;
29916;SDS011;16786;49.466;11.068;2023-10-08T08:07:49;11.52;;;5.72;;
29916;SDS011;16786;49.466;11.068;2023-10-08T08:10:17;9.13;;;5.40;;
29916;SDS011;16786;49.466;11.068;2023-10-08T08:12:45;12.23;;;6.00;;
29916;SDS011;16786;49.466;11.068;2023-10-08T08:15:12;9.75;;;5.70;;
29916;SDS011;16786;49.466;11.068;2023-10-08T08:17:43;18.90;;;5.75;;
29916;SDS011;16786;49.466;11.068;2023-10-08T08:20:15;11.35;;;5.68;;
29916;SDS011;16786;49.466;11.068;2023-10-08T08:22:45;10.25;;;6.55;;
29916;SDS011;16786;49.466;11.068;2023-10-08T08:25:21;10.50;;;5.72;;
29916;SDS011;16786;49.466;11.068;2023-10-08T08:28:01;13.25;;;5.90;;
29916;SDS011;16786;49.466;11.068;2023-10-08T08:30:33;10.88;;;5.32;;
29916;SDS011;16786;49.466;11.068;2023-10-08T08:33:03;11.07;;;5.88;;
29916;SDS011;16786;49.466;11.068;2023-10-08T08:35:37;13.77;;;5.93;;
29916;SDS011;16786;49.466;11.068;2023-10-08T08:38:05;8.88;;;5.43;;
29916;SDS011;16786;49.466;11.068;2023-10-08T08:40:35;13.45;;;5.65;;
29916;SDS011;16786;49.466;11.068;2023-10-08T08:43:03;9.48;;;5.53;;
29916;SDS011;16786;49.466;11.068;2023-10-08T08:45:32;11.50;;;5.72;;
29916;SDS011;16786;49.466;11.068;2023-10-08T08:48:01;9.90;;;5.25;;
29916;SDS011;16786;49.466;11.068;2023-10-08T08:50:29;11.95;;;6.22;;
29916;SDS011;16786;49.466;11.068;2023-10-08T08:52:58;12.05;;;5.60;;
29916;SDS011;16786;49.466;11.068;2023-10-08T08:55:26;9.38;;;5.85;;
29916;SDS011;16786;49.466;11.068;2023-10-08T08:57:55;10.25;;;5.70;;
29916;SDS011;16786;49.466;11.068;2023-10-08T09:00:22;11.82;;;5.70;;
29916;SDS011;16786;49.466;11.068;2023-10-08T09:02:54;12.73;;;6.00;;
29916;SDS011;16786;49.466;11.068;2023-10-08T09:05:22;8.98;;;5.50;;
29916;SDS011;16786;49.466;11.068;2023-10-08T09:08:04;11.32;;;6.78;;
29916;SDS011;16786;49.466;11.068;2023-10-08T09:10:34;10.77;;;5.82;;
29916;SDS011;16786;49.466;11.068;2023-10-08T09:13:21;10.00;;;5.93;;
29916;SDS011;16786;49.466;11.068;2023-10-08T09:15:50;11.43;;;5.18;;
29916;SDS011;16786;49.466;11.068;2023-10-08T09:18:22;10.93;;;5.38;;
29916;SDS011;16786;49.466;11.068;2023-10-08T09:20:54;10.70;;;5.50;;
29916;SDS011;16786;49.466;11.068;2023-10-08T09:23:22;10.75;;;5.35;;
29916;SDS011;16786;49.466;11.068;2023-10-08T09:25:52;12.65;;;5.40;;
29916;SDS011;16786;49.466;11.068;2023-10-08T09:28:30;9.55;;;5.47;;
29916;SDS011;16786;49.466;11.068;2023-10-08T09:31:01;11.05;;;5.78;;
29916;SDS011;16786;49.466;11.068;2023-10-08T09:33:31;11.07;;;6.00;;
29916;SDS011;16786;49.466;11.068;2023-10-08T09:35:59;10.93;;;5.93;;
29916;SDS011;16786;49.466;11.068;2023-10-08T09:38:34;11.75;;;5.75;;
29916;SDS011;16786;49.466;11.068;2023-10-08T09:41:03;11.18;;;5.60;;
29916;SDS011;16786;49.466;11.068;2023-10-08T09:43:30;10.57;;;6.00;;
29916;SDS011;16786;49.466;11.068;2023-10-08T09:46:20;10.35;;;6.40;;
29916;SDS011;16786;49.466;11.068;2023-10-08T09:49:05;12.90;;;6.28;;
29916;SDS011;16786;49.466;11.068;2023-10-08T09:51:35;13.75;;;6.18;;
29916;SDS011;16786;49.466;11.068;2023-10-08T09:56:38;15.57;;;6.07;;
29916;SDS011;16786;49.466;11.068;2023-10-08T09:59:07;10.68;;;6.32;;
29916;SDS011;16786;49.466;11.068;2023-10-08T10:01:37;11.40;;;6.18;;
29916;SDS011;16786;49.466;11.068;2023-10-08T10:04:09;12.55;;;6.53;;
29916;SDS011;16786;49.466;11.068;2023-10-08T10:06:38;12.68;;;7.03;;
29916;SDS011;16786;49.466;11.068;2023-10-08T10:09:12;14.68;;;6.18;;
29916;SDS011;16786;49.466;11.068;2023-10-08T10:11:49;14.00;;;6.53;;
29916;SDS011;16786;49.466;11.068;2023-10-08T10:14:17;12.43;;;6.45;;
29916;SDS011;16786;49.466;11.068;2023-10-08T10:16:48;12.40;;;6.18;;
29916;SDS011;16786;49.466;11.068;2023-10-08T10:19:31;12.52;;;6.40;;
29916;SDS011;16786;49.466;11.068;2023-10-08T10:21:59;12.57;;;6.10;;
29916;SDS011;16786;49.466;11.068;2023-10-08T10:24:28;9.77;;;5.85;;
29916;SDS011;16786;49.466;11.068;2023-10-08T10:27:10;10.18;;;6.50;;
29916;SDS011;16786;49.466;11.068;2023-10-08T10:29:38;10.95;;;5.93;;
29916;SDS011;16786;49.466;11.068;2023-10-08T10:32:06;11.93;;;6.10;;
29916;SDS011;16786;49.466;11.068;2023-10-08T10:34:34;12.93;;;6.45;;
29916;SDS011;16786;49.466;11.068;2023-10-08T10:37:06;14.98;;;6.35;;
29916;SDS011;16786;49.466;11.068;2023-10-08T10:39:55;14.70;;;7.15;;
29916;SDS011;16786;49.466;11.068;2023-10-08T10:42:29;10.90;;;6.40;;
29916;SDS011;16786;49.466;11.068;2023-10-08T10:44:56;11.27;;;6.35;;
29916;SDS011;16786;49.466;11.068;2023-10-08T10:47:25;13.27;;;7.22;;
29916;SDS011;16786;49.466;11.068;2023-10-08T10:49:53;9.15;;;6.05;;
29916;SDS011;16786;49.466;11.068;2023-10-08T10:52:33;13.57;;;6.85;;
29916;SDS011;16786;49.466;11.068;2023-10-08T10:55:19;12.38;;;6.60;;
29916;SDS011;16786;49.466;11.068;2023-10-08T10:57:58;12.23;;;6.13;;
29916;SDS011;16786;49.466;11.068;2023-10-08T11:00:31;13.00;;;6.32;;
29916;SDS011;16786;49.466;11.068;2023-10-08T11:02:59;9.80;;;6.38;;
29916;SDS011;16786;49.466;11.068;2023-10-08T11:05:30;14.25;;;7.10;;
29916;SDS011;16786;49.466;11.068;2023-10-08T11:08:05;13.05;;;6.90;;
29916;SDS011;16786;49.466;11.068;2023-10-08T11:10:34;12.40;;;6.75;;
29916;SDS011;16786;49.466;11.068;2023-10-08T11:13:06;12.55;;;7.22;;
29916;SDS011;16786;49.466;11.068;2023-10-08T11:15:41;8.45;;;5.80;;
29916;SDS011;16786;49.466;11.068;2023-10-08T11:18:10;12.85;;;7.40;;
29916;SDS011;16786;49.466;11.068;2023-10-08T11:20:43;11.25;;;6.60;;
29916;SDS011;16786;49.466;11.068;2023-10-08T11:23:34;11.88;;;7.05;;
29916;SDS011;16786;49.466;11.068;2023-10-08T11:26:08;14.43;;;6.97;;
29916;SDS011;16786;49.466;11.068;2023-10-08T11:28:36;12.90;;;7.15;;
29916;SDS011;16786;49.466;11.068;2023-10-08T11:31:10;12.57;;;6.28;;
29916;SDS011;16786;49.466;11.068;2023-10-08T11:33:41;14.60;;;7.53;;
29916;SDS011;16786;49.466;11.068;2023-10-08T11:36:10;12.10;;;7.10;;
29916;SDS011;16786;49.466;11.068;2023-10-08T11:38:45;14.23;;;6.68;;
29916;SDS011;16786;49.466;11.068;2023-10-08T11:41:17;12.60;;;7.03;;
29916;SDS011;16786;49.466;11.068;2023-10-08T11:46:21;13.88;;;6.57;;
29916;SDS011;16786;49.466;11.068;2023-10-08T11:48:52;13.18;;;6.40;;
29916;SDS011;16786;49.466;11.068;2023-10-08T11:51:24;10.45;;;6.53;;
29916;SDS011;16786;49.466;11.068;2023-10-08T11:53:56;13.30;;;6.30;;
29916;SDS011;16786;49.466;11.068;2023-10-08T11:56:23;13.23;;;6.93;;
29916;SDS011;16786;49.466;11.068;2023-10-08T11:58:50;12.98;;;6.40;;
29916;SDS011;16786;49.466;11.068;2023-10-08T12:01:19;13.68;;;6.93;;
29916;SDS011;16786;49.466;11.068;2023-10-08T12:03:47;11.60;;;6.20;;
29916;SDS011;16786;49.466;11.068;2023-10-08T12:06:18;13.20;;;7.17;;
29916;SDS011;16786;49.466;11.068;2023-10-08T12:08:47;11.20;;;6.63;;
29916;SDS011;16786;49.466;11.068;2023-10-08T12:11:20;11.00;;;6.68;;
29916;SDS011;16786;49.466;11.068;2023-10-08T12:13:49;14.98;;;7.15;;
29916;SDS011;16786;49.466;11.068;2023-10-08T12:16:17;12.63;;;6.38;;
29916;SDS011;16786;49.466;11.068;2023-10-08T12:18:50;11.82;;;6.47;;
29916;SDS011;16786;49.466;11.068;2023-10-08T12:21:22;11.43;;;6.55;;
29916;SDS011;16786;49.466;11.068;2023-10-08T12:23:51;12.50;;;6.05;;
29916;SDS011;16786;49.466;11.068;2023-10-08T12:26:21;12.75;;;7.05;;
29916;SDS011;16786;49.466;11.068;2023-10-08T12:28:49;17.45;;;6.78;;
29916;SDS011;16786;49.466;11.068;2023-10-08T12:31:19;13.15;;;6.63;;
29916;SDS011;16786;49.466;11.068;2023-10-08T12:33:49;14.73;;;6.40;;
29916;SDS011;16786;49.466;11.068;2023-10-08T12:36:20;11.38;;;6.18;;
29916;SDS011;16786;49.466;11.068;2023-10-08T12:38:50;13.02;;;6.30;;
29916;SDS011;16786;49.466;11.068;2023-10-08T12:41:26;12.50;;;6.78;;
29916;SDS011;16786;49.466;11.068;2023-10-08T12:43:54;14.38;;;6.88;;
29916;SDS011;16786;49.466;11.068;2023-10-08T12:46:21;10.15;;;6.65;;
29916;SDS011;16786;49.466;11.068;2023-10-08T12:48:52;16.20;;;6.77;;
29916;SDS011;16786;49.466;11.068;2023-10-08T12:51:25;11.88;;;6.85;;
29916;SDS011;16786;49.466;11.068;2023-10-08T12:53:53;15.82;;;6.88;;
29916;SDS011;16786;49.466;11.068;2023-10-08T12:56:33;13.60;;;7.70;;
29916;SDS011;16786;49.466;11.068;2023-10-08T12:59:15;11.65;;;5.85;;
29916;SDS011;16786;49.466;11.068;2023-10-08T13:01:50;12.13;;;6.75;;
29916;SDS011;16786;49.466;11.068;2023-10-08T13:04:21;17.15;;;7.10;;
29916;SDS011;16786;49.466;11.068;2023-10-08T13:06:56;12.73;;;6.95;;
29916;SDS011;16786;49.466;11.068;2023-10-08T13:09:28;12.30;;;6.82;;
29916;SDS011;16786;49.466;11.068;2023-10-08T13:11:59;10.43;;;6.32;;
29916;SDS011;16786;49.466;11.068;2023-10-08T13:14:26;11.45;;;6.22;;
29916;SDS011;16786;49.466;11.068;2023-10-08T13:16:54;13.77;;;7.00;;
29916;SDS011;16786;49.466;11.068;2023-10-08T13:19:21;13.73;;;6.40;;
29916;SDS011;16786;49.466;11.068;2023-10-08T13:21:53;15.27;;;7.28;;
29916;SDS011;16786;49.466;11.068;2023-10-08T13:24:20;13.40;;;6.88;;
29916;SDS011;16786;49.466;11.068;2023-10-08T13:26:50;14.90;;;6.78;;
29916;SDS011;16786;49.466;11.068;2023-10-08T13:29:18;10.18;;;6.05;;
29916;SDS011;16786;49.466;11.068;2023-10-08T13:31:46;11.68;;;6.97;;
29916;SDS011;16786;49.466;11.068;2023-10-08T13:34:13;12.38;;;7.00;;
29916;SDS011;16786;49.466;11.068;2023-10-08T13:36:43;12.95;;;6.97;;
29916;SDS011;16786;49.466;11.068;2023-10-08T13:39:14;10.02;;;6.22;;
29916;SDS011;16786;49.466;11.068;2023-10-08T13:41:45;13.57;;;6.93;;
29916;SDS011;16786;49.466;11.068;2023-10-08T13:44:15;15.55;;;6.95;;
29916;SDS011;16786;49.466;11.068;2023-10-08T13:46:42;12.85;;;6.80;;
29916;SDS011;16786;49.466;11.068;2023-10-08T13:49:16;15.77;;;7.15;;
29916;SDS011;16786;49.466;11.068;2023-10-08T13:51:46;12.38;;;6.65;;
29916;SDS011;16786;49.466;11.068;2023-10-08T13:54:16;13.45;;;7.35;;
29916;SDS011;16786;49.466;11.068;2023-10-08T13:56:46;14.13;;;6.65;;
29916;SDS011;16786;49.466;11.068;2023-10-08T13:59:15;13.93;;;7.22;;
29916;SDS011;16786;49.466;11.068;2023-10-08T14:01:45;10.13;;;7.03;;
29916;SDS011;16786;49.466;11.068;2023-10-08T14:04:19;11.40;;;6.50;;
29916;SDS011;16786;49.466;11.068;2023-10-08T14:06:47;15.43;;;7.32;;
29916;SDS011;16786;49.466;11.068;2023-10-08T14:11:48;10.07;;;6.82;;
29916;SDS011;16786;49.466;11.068;2023-10-08T14:14:20;18.40;;;7.72;;
29916;SDS011;16786;49.466;11.068;2023-10-08T14:16:51;12.65;;;7.45;;
29916;SDS011;16786;49.466;11.068;2023-10-08T14:19:20;12.68;;;7.35;;
29916;SDS011;16786;49.466;11.068;2023-10-08T14:21:55;12.90;;;7.03;;
29916;SDS011;16786;49.466;11.068;2023-10-08T14:24:30;12.60;;;7.68;;
29916;SDS011;16786;49.466;11.068;2023-10-08T14:27:02;14.55;;;7.70;;
29916;SDS011;16786;49.466;11.068;2023-10-08T14:29:39;12.43;;;6.43;;
29916;SDS011;16786;49.466;11.068;2023-10-08T14:32:07;10.07;;;7.13;;
29916;SDS011;16786;49.466;11.068;2023-10-08T14:34:38;12.30;;;6.75;;
29916;SDS011;16786;49.466;11.068;2023-10-08T14:37:15;13.27;;;7.07;;
29916;SDS011;16786;49.466;11.068;2023-10-08T14:40:01;22.87;;;9.67;;
29916;SDS011;16786;49.466;11.068;2023-10-08T14:42:47;16.45;;;7.15;;
29916;SDS011;16786;49.466;11.068;2023-10-08T14:45:31;12.73;;;6.88;;
29916;SDS011;16786;49.466;11.068;2023-10-08T14:48:02;12.48;;;6.95;;
29916;SDS011;16786;49.466;11.068;2023-10-08T14:50:34;12.27;;;7.32;;
29916;SDS011;16786;49.466;11.068;2023-10-08T14:53:02;14.13;;;7.53;;
29916;SDS011;16786;49.466;11.068;2023-10-08T14:55:32;15.63;;;7.95;;
29916;SDS011;16786;49.466;11.068;2023-10-08T14:58:04;13.93;;;7.95;;
29916;SDS011;16786;49.466;11.068;2023-10-08T15:00:36;13.75;;;8.02;;
29916;SDS011;16786;49.466;11.068;2023-10-08T15:03:06;13.23;;;7.72;;
29916;SDS011;16786;49.466;11.068;2023-10-08T15:05:35;15.18;;;8.15;;
29916;SDS011;16786;49.466;11.068;2023-10-08T15:08:04;14.32;;;7.60;;
29916;SDS011;16786;49.466;11.068;2023-10-08T15:10:37;13.07;;;8.18;;
29916;SDS011;16786;49.466;11.068;2023-10-08T15:13:05;21.08;;;7.68;;
29916;SDS011;16786;49.466;11.068;2023-10-08T15:15:33;12.00;;;7.20;;
29916;SDS011;16786;49.466;11.068;2023-10-08T15:18:01;15.50;;;8.30;;
29916;SDS011;16786;49.466;11.068;2023-10-08T15:20:29;17.02;;;7.45;;
29916;SDS011;16786;49.466;11.068;2023-10-08T15:22:59;13.55;;;7.90;;
29916;SDS011;16786;49.466;11.068;2023-10-08T15:25:27;14.77;;;8.45;;
29916;SDS011;16786;49.466;11.068;2023-10-08T15:27:54;15.27;;;7.95;;
29916;SDS011;16786;49.466;11.068;2023-10-08T15:30:21;21.55;;;8.25;;
29916;SDS011;16786;49.466;11.068;2023-10-08T15:32:49;11.52;;;7.55;;